createdAt,value
2022-11-25T00:01:18.905Z,3.14
2022-11-25T00:03:46.421Z,3.21
2022-11-25T00:06:12.982Z,3.38
2022-11-25T00:08:43.572Z,3.34
2022-11-25T00:11:11.186Z,3.31
2022-11-25T00:13:41.072Z,3.38
2022-11-25T00:16:14.754Z,3.39
2022-11-25T00:18:45.269Z,3.36
2022-11-25T00:21:14.519Z,3.42
2022-11-25T00:23:46.026Z,3.57
2022-11-25T00:26:14.803Z,3.78
2022-11-25T00:28:43.172Z,3.76
2022-11-25T00:31:15.903Z,3.84
2022-11-25T00:33:43.370Z,3.80
2022-11-25T00:36:32.631Z,3.68
2022-11-25T00:39:04.501Z,3.46
2022-11-25T00:41:52.058Z,3.52
2022-11-25T00:44:36.094Z,3.84
2022-11-25T00:47:09.754Z,3.90
2022-11-25T00:49:37.598Z,3.88
2022-11-25T00:52:05.080Z,3.81
2022-11-25T00:54:35.693Z,3.84
2022-11-25T00:57:02.538Z,3.93
2022-11-25T00:59:30.453Z,4.09
2022-11-25T01:02:09.898Z,4.08
2022-11-25T01:04:36.998Z,4.04
2022-11-25T01:07:04.013Z,3.91
2022-11-25T01:09:35.606Z,3.90
2022-11-25T01:12:04.055Z,3.81
2022-11-25T01:14:30.860Z,3.91
2022-11-25T01:16:57.570Z,3.98
2022-11-25T01:19:27.518Z,3.91
2022-11-25T01:21:54.243Z,3.87
2022-11-25T01:24:20.865Z,4.07
2022-11-25T01:26:47.522Z,4.16
2022-11-25T01:29:17.016Z,4.15
2022-11-25T01:31:46.885Z,4.09
2022-11-25T01:34:27.498Z,3.89
2022-11-25T01:37:05.926Z,3.91
2022-11-25T01:39:43.758Z,4.07
2022-11-25T01:42:10.390Z,4.05
2022-11-25T01:44:39.413Z,3.93
2022-11-25T01:47:19.267Z,3.88
2022-11-25T01:50:04.282Z,3.80
2022-11-25T01:52:40.674Z,3.97
2022-11-25T01:55:29.800Z,3.99
2022-11-25T01:58:20.699Z,3.91
2022-11-25T02:00:51.417Z,4.15
2022-11-25T02:03:40.869Z,4.14
2022-11-25T02:06:20.944Z,4.12
2022-11-25T02:08:52.273Z,4.17
2022-11-25T02:11:19.661Z,4.23
2022-11-25T02:13:49.606Z,4.16
2022-11-25T02:16:16.327Z,4.13
2022-11-25T02:18:43.268Z,4.30
2022-11-25T02:21:10.094Z,4.18
2022-11-25T02:23:42.681Z,4.12
2022-11-25T02:26:12.926Z,4.01
2022-11-25T02:28:40.099Z,4.11
2022-11-25T02:31:07.897Z,4.16
2022-11-25T02:33:38.765Z,4.20
2022-11-25T02:36:10.912Z,4.19
2022-11-25T02:38:47.083Z,4.14
2022-11-25T02:41:19.062Z,4.28
2022-11-25T02:43:52.741Z,4.27
2022-11-25T02:46:23.289Z,4.24
2022-11-25T02:51:44.436Z,4.08
2022-11-25T02:54:12.572Z,4.12
2022-11-25T02:56:40.245Z,4.04
2022-11-25T02:59:08.452Z,3.96
2022-11-25T03:01:38.872Z,3.87
2022-11-25T03:04:07.686Z,4.00
2022-11-25T03:06:35.192Z,4.08
2022-11-25T03:09:01.943Z,4.13
2022-11-25T03:11:48.321Z,4.23
2022-11-25T03:14:19.127Z,4.36
2022-11-25T03:16:45.958Z,4.44
2022-11-25T03:19:12.591Z,4.54
2022-11-25T03:21:39.236Z,4.66
2022-11-25T03:24:06.285Z,4.61
2022-11-25T03:26:32.935Z,4.65
2022-11-25T03:28:59.617Z,4.72
2022-11-25T03:31:27.259Z,4.74
2022-11-25T03:33:55.568Z,4.71
2022-11-25T03:36:23.231Z,4.72
2022-11-25T03:38:57.347Z,4.70
2022-11-25T03:41:24.121Z,4.72
2022-11-25T03:43:50.771Z,4.73
2022-11-25T03:46:17.486Z,4.76
2022-11-25T03:48:47.132Z,4.97
2022-11-25T03:51:13.777Z,4.92
2022-11-25T03:53:42.906Z,4.96
2022-11-25T03:56:10.080Z,5.08
2022-11-25T03:58:36.742Z,4.94
2022-11-25T04:01:12.261Z,4.96
2022-11-25T04:03:41.357Z,4.95
2022-11-25T04:06:10.391Z,5.06
2022-11-25T04:08:42.133Z,5.10
2022-11-25T04:11:13.197Z,5.13
2022-11-25T04:13:49.626Z,5.10
2022-11-25T04:16:23.853Z,5.04
2022-11-25T04:18:51.924Z,4.97
2022-11-25T04:21:18.627Z,5.02
2022-11-25T04:23:45.306Z,4.87
2022-11-25T04:26:13.671Z,4.85
2022-11-25T04:28:40.738Z,5.01
2022-11-25T04:31:13.357Z,5.02
2022-11-25T04:33:42.394Z,4.93
2022-11-25T04:36:10.423Z,5.01
2022-11-25T04:38:39.938Z,5.03
2022-11-25T04:41:07.936Z,5.08
2022-11-25T04:43:39.432Z,5.16
2022-11-25T04:46:17.160Z,5.17
2022-11-25T04:48:48.005Z,5.24
2022-11-25T04:51:15.675Z,5.23
2022-11-25T04:53:44.025Z,5.17
2022-11-25T04:56:17.712Z,5.22
2022-11-25T04:59:04.442Z,5.13
2022-11-25T05:01:36.538Z,5.22
2022-11-25T05:04:15.826Z,5.21
2022-11-25T05:06:42.437Z,5.27
2022-11-25T05:09:11.215Z,5.25
2022-11-25T05:11:40.028Z,5.32
2022-11-25T05:14:11.222Z,5.26
2022-11-25T05:16:38.921Z,5.32
2022-11-25T05:19:06.192Z,5.20
2022-11-25T05:21:33.437Z,5.23
2022-11-25T05:24:00.030Z,5.25
2022-11-25T05:26:29.773Z,5.27
2022-11-25T05:28:59.216Z,5.21
2022-11-25T05:31:25.945Z,5.16
2022-11-25T05:33:53.410Z,5.22
2022-11-25T05:36:20.977Z,5.14
2022-11-25T05:38:48.424Z,5.08
2022-11-25T05:41:35.085Z,5.11
2022-11-25T05:44:02.016Z,5.12
2022-11-25T05:46:29.238Z,5.15
2022-11-25T05:48:56.483Z,5.14
2022-11-25T05:51:25.169Z,5.18
2022-11-25T05:53:53.370Z,5.15
2022-11-25T05:56:23.741Z,5.09
2022-11-25T05:59:09.168Z,5.13
2022-11-25T06:01:54.546Z,5.14
2022-11-25T06:04:21.296Z,5.22
2022-11-25T06:06:50.485Z,5.28
2022-11-25T06:09:17.231Z,5.17
2022-11-25T06:11:43.928Z,5.18
2022-11-25T06:14:10.634Z,5.24
2022-11-25T06:16:37.763Z,5.20
2022-11-25T06:19:17.294Z,5.17
2022-11-25T06:21:46.057Z,5.14
2022-11-25T06:24:15.760Z,5.27
2022-11-25T06:26:44.644Z,5.22
2022-11-25T06:29:11.253Z,5.25
2022-11-25T06:31:40.179Z,5.18
2022-11-25T06:34:27.823Z,5.09
2022-11-25T06:37:02.122Z,5.06
2022-11-25T06:39:34.808Z,5.09
2022-11-25T06:42:04.059Z,5.14
2022-11-25T06:44:34.892Z,5.16
2022-11-25T06:47:18.215Z,5.18
2022-11-25T06:49:49.393Z,5.17
2022-11-25T06:52:16.173Z,5.28
2022-11-25T06:54:43.150Z,5.21
2022-11-25T06:57:11.255Z,5.20
2022-11-25T06:59:38.225Z,5.18
2022-11-25T07:02:12.020Z,5.39
2022-11-25T07:04:41.975Z,5.30
2022-11-25T07:07:37.855Z,5.23
2022-11-25T07:10:09.761Z,5.20
2022-11-25T07:12:36.576Z,5.19
2022-11-25T07:17:56.499Z,5.15
2022-11-25T07:20:28.615Z,5.14
2022-11-25T07:22:55.465Z,5.19
2022-11-25T07:25:30.561Z,5.20
2022-11-25T07:27:57.598Z,5.26
2022-11-25T07:33:11.088Z,5.33
2022-11-25T07:35:43.506Z,5.35
2022-11-25T07:38:10.562Z,5.31
2022-11-25T07:40:39.796Z,5.34
2022-11-25T07:43:14.790Z,5.35
2022-11-25T07:49:39.746Z,5.49
2022-11-25T07:52:06.877Z,5.50
2022-11-25T07:54:33.703Z,5.58
2022-11-25T07:57:06.824Z,5.65
2022-11-25T07:59:43.754Z,5.64
2022-11-25T08:02:20.692Z,5.63
2022-11-25T08:04:47.611Z,5.66
2022-11-25T08:07:14.419Z,5.69
2022-11-25T08:09:41.344Z,5.74
2022-11-25T08:12:18.314Z,5.78
2022-11-25T08:14:52.370Z,5.89
2022-11-25T08:20:29.573Z,6.05
2022-11-25T08:22:59.613Z,6.05
2022-11-25T08:25:47.456Z,6.08
2022-11-25T08:28:19.712Z,6.08
2022-11-25T08:30:46.496Z,6.10
2022-11-25T08:33:13.155Z,6.10
2022-11-25T08:35:46.411Z,6.09
2022-11-25T08:38:16.854Z,6.14
2022-11-25T08:40:47.344Z,6.24
2022-11-25T08:43:42.845Z,6.30
2022-11-25T08:46:24.622Z,6.35
2022-11-25T08:52:21.878Z,6.46
2022-11-25T08:55:50.519Z,6.56
2022-11-25T08:58:27.884Z,6.66
2022-11-25T09:01:05.033Z,6.84
2022-11-25T09:04:03.079Z,6.87
2022-11-25T09:06:36.021Z,7.05
2022-11-25T09:09:30.605Z,7.07
2022-11-25T09:12:00.971Z,7.15
2022-11-25T09:14:35.559Z,7.04
2022-11-25T09:17:32.103Z,7.07
2022-11-25T09:24:01.436Z,7.00
2022-11-25T09:26:42.350Z,6.88
2022-11-25T09:29:09.936Z,6.83
2022-11-25T09:31:36.791Z,6.90
2022-11-25T09:34:13.698Z,6.95
2022-11-25T09:36:45.253Z,6.90
2022-11-25T09:39:37.400Z,6.93
2022-11-25T09:43:13.632Z,6.96
2022-11-25T09:58:32.903Z,7.19
2022-11-25T10:01:37.039Z,7.13
2022-11-25T10:08:45.436Z,7.15
2022-11-25T10:11:45.027Z,6.90
2022-11-25T10:14:20.157Z,7.10
2022-11-25T10:20:40.458Z,7.01
2022-11-25T10:23:27.609Z,7.25
2022-11-25T10:26:37.754Z,7.25
2022-11-25T10:29:37.506Z,7.25
2022-11-25T10:32:25.612Z,7.23
2022-11-25T10:34:58.005Z,7.17
2022-11-25T10:37:34.506Z,7.14
2022-11-25T10:40:10.635Z,7.26
2022-11-25T10:43:12.040Z,7.19
2022-11-25T10:45:55.650Z,7.22
2022-11-25T10:48:45.810Z,7.16
2022-11-25T10:51:34.305Z,7.32
2022-11-25T10:55:21.989Z,7.45
2022-11-25T11:01:27.791Z,7.90
2022-11-25T11:04:15.129Z,8.07
2022-11-25T11:06:46.276Z,8.08
2022-11-25T11:09:39.016Z,8.07
2022-11-25T11:12:23.781Z,8.37
2022-11-25T11:14:51.497Z,8.32
2022-11-25T11:17:37.446Z,8.22
2022-11-25T11:20:07.370Z,8.24
2022-11-25T11:22:47.693Z,8.15
2022-11-25T11:25:27.887Z,8.15
2022-11-25T11:28:04.470Z,8.14
2022-11-25T11:30:58.794Z,8.17
2022-11-25T11:37:16.803Z,8.18
2022-11-25T11:40:32.715Z,8.24
2022-11-25T11:43:14.599Z,8.24
2022-11-25T11:46:17.705Z,8.22
2022-11-25T11:49:18.907Z,8.38
2022-11-25T11:51:48.573Z,8.36
2022-11-25T11:54:44.588Z,8.36
2022-11-25T11:57:37.435Z,8.35
2022-11-25T12:00:15.346Z,8.21
2022-11-25T12:03:02.654Z,8.14
2022-11-25T12:05:37.178Z,8.16
2022-11-25T12:08:16.437Z,8.12
2022-11-25T12:10:47.456Z,8.05
2022-11-25T12:13:30.595Z,7.99
2022-11-25T12:16:01.138Z,8.11
2022-11-25T12:18:49.914Z,7.98
2022-11-25T12:21:36.252Z,7.87
2022-11-25T12:24:18.129Z,7.84
2022-11-25T12:27:02.510Z,7.89
2022-11-25T12:29:49.486Z,7.75
2022-11-25T12:32:31.665Z,7.71
2022-11-25T12:35:10.759Z,7.65
2022-11-25T12:38:04.931Z,7.69
2022-11-25T12:41:16.079Z,7.74
2022-11-25T12:43:52.901Z,7.82
2022-11-25T12:46:25.913Z,7.79
2022-11-25T12:48:54.020Z,7.84
2022-11-25T12:51:48.832Z,7.85
2022-11-25T12:54:30.514Z,7.79
2022-11-25T12:56:57.005Z,7.77
2022-11-25T12:59:41.798Z,7.77
2022-11-25T13:02:40.657Z,7.71
2022-11-25T13:05:44.957Z,7.67
2022-11-25T13:08:36.513Z,7.60
2022-11-25T13:11:34.480Z,7.64
2022-11-25T13:14:17.624Z,7.68
2022-11-25T13:16:46.155Z,7.75
2022-11-25T13:19:24.369Z,7.81
2022-11-25T13:22:20.291Z,7.78
2022-11-25T13:24:49.301Z,7.72
2022-11-25T13:27:54.111Z,7.74
2022-11-25T13:30:32.788Z,7.76
2022-11-25T13:33:11.743Z,7.85
2022-11-25T13:35:48.497Z,7.81
2022-11-25T13:38:30.523Z,7.87
2022-11-25T13:41:24.440Z,7.76
2022-11-25T13:44:12.813Z,7.78
2022-11-25T13:46:43.586Z,7.86
2022-11-25T13:49:36.339Z,7.72
2022-11-25T13:52:12.154Z,7.84
2022-11-25T13:54:53.996Z,7.80
2022-11-25T13:57:29.235Z,7.82
2022-11-25T14:00:04.637Z,7.76
2022-11-25T14:02:45.351Z,7.70
2022-11-25T14:05:49.749Z,7.72
2022-11-25T14:08:37.781Z,7.62
2022-11-25T14:11:14.732Z,7.54
2022-11-25T14:13:48.219Z,7.55
2022-11-25T14:16:33.203Z,7.40
2022-11-25T14:22:51.666Z,7.31
2022-11-25T14:25:23.473Z,7.38
2022-11-25T14:27:52.687Z,7.28
2022-11-25T14:30:23.876Z,7.11
2022-11-25T14:32:58.464Z,7.11
2022-11-25T14:35:33.853Z,7.19
2022-11-25T14:38:04.242Z,7.07
2022-11-25T14:41:01.566Z,6.90
2022-11-25T14:43:29.518Z,7.04
2022-11-25T14:46:28.873Z,7.05
2022-11-25T14:48:57.795Z,7.08
2022-11-25T14:51:26.145Z,7.01
2022-11-25T14:53:53.194Z,6.84
2022-11-25T14:56:27.888Z,6.81
2022-11-25T14:58:56.265Z,6.77
2022-11-25T15:01:34.107Z,7.03
2022-11-25T15:04:24.079Z,6.99
2022-11-25T15:06:57.723Z,7.02
2022-11-25T15:09:27.275Z,7.02
2022-11-25T15:12:08.199Z,6.79
2022-11-25T15:14:36.483Z,6.77
2022-11-25T15:17:19.458Z,6.81
2022-11-25T15:19:46.296Z,6.75
2022-11-25T15:22:24.252Z,6.70
2022-11-25T15:24:55.653Z,7.11
2022-11-25T15:27:26.858Z,7.07
2022-11-25T15:30:01.401Z,7.09
2022-11-25T15:32:41.847Z,7.04
2022-11-25T15:35:26.296Z,6.85
2022-11-25T15:37:54.375Z,6.99
2022-11-25T15:40:50.653Z,6.85
2022-11-25T15:43:35.392Z,6.88
2022-11-25T15:46:04.022Z,6.82
2022-11-25T15:48:48.193Z,6.84
2022-11-25T15:51:34.543Z,6.93
2022-11-25T15:54:13.362Z,7.02
2022-11-25T15:56:49.245Z,7.00
2022-11-25T15:59:47.100Z,6.93
2022-11-25T16:02:35.953Z,6.80
2022-11-25T16:05:14.904Z,6.53
2022-11-25T16:07:53.360Z,6.45
2022-11-25T16:10:33.269Z,6.45
2022-11-25T16:13:25.878Z,6.65
2022-11-25T16:15:57.887Z,6.84
2022-11-25T16:18:46.672Z,6.91
2022-11-25T16:21:26.483Z,6.96
2022-11-25T16:24:16.409Z,6.98
2022-11-25T16:27:07.100Z,7.09
2022-11-25T16:29:39.465Z,7.09
2022-11-25T16:32:14.770Z,7.04
2022-11-25T16:34:42.114Z,7.15
2022-11-25T16:37:09.099Z,7.32
2022-11-25T16:39:37.241Z,7.48
2022-11-25T16:42:04.708Z,7.39
2022-11-25T16:44:33.428Z,7.47
2022-11-25T16:47:03.842Z,7.37
2022-11-25T16:49:33.031Z,7.40
2022-11-25T16:52:00.667Z,7.43
2022-11-25T16:54:29.801Z,7.40
2022-11-25T16:56:57.588Z,7.55
2022-11-25T16:59:27.450Z,7.55
2022-11-25T17:01:54.235Z,7.58
2022-11-25T17:04:21.450Z,7.67
2022-11-25T17:07:09.820Z,7.69
2022-11-25T17:09:36.298Z,7.75
2022-11-25T17:12:04.717Z,7.66
2022-11-25T17:14:34.673Z,7.85
2022-11-25T17:17:05.707Z,7.87
2022-11-25T17:19:36.497Z,7.79
2022-11-25T17:22:04.538Z,7.90
2022-11-25T17:24:42.430Z,7.71
2022-11-25T17:27:32.261Z,7.61
2022-11-25T17:30:11.325Z,7.66
2022-11-25T17:32:44.074Z,7.64
2022-11-25T17:36:05.782Z,7.67
2022-11-25T17:39:24.415Z,7.74
2022-11-25T17:41:51.810Z,7.71
2022-11-25T17:44:26.648Z,7.59
2022-11-25T17:46:58.181Z,7.62
2022-11-25T17:49:25.581Z,7.49
2022-11-25T17:51:52.806Z,7.52
2022-11-25T17:54:19.562Z,7.63
2022-11-25T17:56:52.304Z,7.79
2022-11-25T17:59:27.294Z,7.64
2022-11-25T18:01:56.132Z,7.67
2022-11-25T18:04:24.418Z,7.62
2022-11-25T18:06:51.604Z,7.66
2022-11-25T18:09:19.036Z,7.76
2022-11-25T18:12:09.911Z,7.72
2022-11-25T18:14:37.326Z,7.71
2022-11-25T18:17:07.872Z,7.70
2022-11-25T18:19:35.260Z,7.71
2022-11-25T18:22:19.061Z,7.70
2022-11-25T18:24:47.508Z,7.70
2022-11-25T18:27:29.290Z,7.69
2022-11-25T18:29:57.283Z,7.66
2022-11-25T18:32:25.322Z,7.65
2022-11-25T18:34:52.664Z,7.75
2022-11-25T18:37:19.678Z,7.73
2022-11-25T18:39:49.679Z,7.78
2022-11-25T18:42:24.863Z,7.69
2022-11-25T18:44:51.869Z,7.63
2022-11-25T18:47:21.094Z,7.73
2022-11-25T18:49:56.502Z,7.63
2022-11-25T18:52:24.876Z,7.58
2022-11-25T18:54:55.686Z,7.49
2022-11-25T18:57:23.480Z,7.51
2022-11-25T19:00:17.035Z,7.44
2022-11-25T19:02:38.030Z,7.40
2022-11-25T19:05:29.349Z,7.30
2022-11-25T19:07:57.683Z,7.18
2022-11-25T19:10:32.376Z,7.18
2022-11-25T19:13:01.886Z,6.98
2022-11-25T19:15:30.170Z,7.13
2022-11-25T19:18:00.686Z,6.92
2022-11-25T19:20:28.581Z,7.05
2022-11-25T19:23:22.796Z,7.00
2022-11-25T19:25:49.581Z,7.02
2022-11-25T19:31:06.574Z,6.81
2022-11-25T19:34:49.362Z,6.62
2022-11-25T19:37:17.720Z,6.48
2022-11-25T19:39:44.434Z,6.50
2022-11-25T19:42:11.294Z,6.52
2022-11-25T19:44:38.343Z,6.43
2022-11-25T19:47:15.380Z,6.36
2022-11-25T19:49:43.118Z,6.45
2022-11-25T19:52:31.199Z,6.34
2022-11-25T19:55:01.078Z,6.54
2022-11-25T19:57:28.410Z,6.52
2022-11-25T19:59:54.960Z,6.54
2022-11-25T20:02:23.455Z,6.70
2022-11-25T20:04:52.742Z,6.68
2022-11-25T20:07:20.158Z,6.69
2022-11-25T20:09:51.564Z,6.83
2022-11-25T20:12:21.162Z,6.77
2022-11-25T20:14:48.512Z,6.87
2022-11-25T20:17:29.148Z,6.99
2022-11-25T20:20:09.992Z,7.13
2022-11-25T20:22:37.928Z,7.07
2022-11-25T20:25:07.749Z,7.07
2022-11-25T20:27:34.648Z,7.15
2022-11-25T20:30:01.528Z,7.15
2022-11-25T20:32:35.392Z,7.19
2022-11-25T20:35:04.692Z,7.13
2022-11-25T20:37:40.407Z,7.02
2022-11-25T20:40:14.002Z,6.93
2022-11-25T20:42:40.718Z,6.83
2022-11-25T20:45:15.139Z,6.87
2022-11-25T20:47:42.054Z,6.73
2022-11-25T20:50:10.803Z,6.61
2022-11-25T20:52:38.826Z,6.64
2022-11-25T20:55:16.356Z,6.67
2022-11-25T20:57:43.208Z,6.59
2022-11-25T21:00:36.463Z,6.59
2022-11-25T21:03:03.211Z,6.66
2022-11-25T21:05:29.946Z,6.56
2022-11-25T21:07:56.668Z,6.53
2022-11-25T21:10:33.527Z,6.63
2022-11-25T21:13:00.716Z,6.60
2022-11-25T21:15:29.397Z,6.48
2022-11-25T21:17:57.624Z,6.45
2022-11-25T21:20:26.603Z,6.53
2022-11-25T21:22:56.674Z,6.46
2022-11-25T21:25:24.739Z,6.62
2022-11-25T21:27:52.391Z,6.68
2022-11-25T21:30:21.931Z,6.51
2022-11-25T21:32:51.257Z,6.51
2022-11-25T21:35:40.371Z,6.36
2022-11-25T21:38:16.022Z,6.44
2022-11-25T21:40:45.733Z,6.62
2022-11-25T21:43:21.789Z,6.50
2022-11-25T21:45:50.035Z,6.71
2022-11-25T21:48:20.400Z,6.60
2022-11-25T21:50:47.211Z,6.52
2022-11-25T21:53:14.181Z,6.51
2022-11-25T21:55:41.140Z,6.54
2022-11-25T21:58:19.935Z,6.47
2022-11-25T22:01:00.962Z,6.50
2022-11-25T22:03:30.437Z,6.39
2022-11-25T22:05:57.102Z,6.40
2022-11-25T22:08:24.066Z,6.28
2022-11-25T22:10:52.786Z,6.20
2022-11-25T22:13:25.016Z,6.13
2022-11-25T22:15:55.365Z,6.13
2022-11-25T22:18:29.960Z,6.05
2022-11-25T22:20:56.694Z,6.11
2022-11-25T22:23:23.591Z,6.12
2022-11-25T22:25:50.838Z,6.21
2022-11-25T22:28:27.932Z,6.08
2022-11-25T22:30:58.341Z,6.13
2022-11-25T22:33:51.291Z,6.03
2022-11-25T22:36:50.136Z,6.01
2022-11-25T22:39:16.728Z,6.15
2022-11-25T22:41:48.687Z,6.13
2022-11-25T22:44:34.384Z,6.05
2022-11-25T22:47:04.718Z,6.02
2022-11-25T22:49:38.802Z,5.93
2022-11-25T22:52:06.301Z,5.96
2022-11-25T22:54:32.966Z,5.86
2022-11-25T22:57:00.041Z,5.83
2022-11-25T22:59:26.657Z,6.00
2022-11-25T23:01:53.517Z,5.75
2022-11-25T23:04:20.765Z,5.77
2022-11-25T23:06:47.895Z,5.60
2022-11-25T23:09:17.799Z,5.72
2022-11-25T23:11:53.892Z,5.78
2022-11-25T23:14:20.625Z,5.75
2022-11-25T23:16:47.469Z,5.62
2022-11-25T23:19:39.406Z,5.46
2022-11-25T23:22:10.708Z,5.50
2022-11-25T23:24:40.217Z,5.53
2022-11-25T23:27:06.898Z,5.60
2022-11-25T23:29:35.690Z,5.55
2022-11-25T23:32:07.862Z,5.52
2022-11-25T23:34:36.536Z,5.42
2022-11-25T23:37:29.363Z,5.46
2022-11-25T23:39:56.066Z,5.43
2022-11-25T23:42:22.709Z,5.39
2022-11-25T23:44:49.348Z,5.34
2022-11-25T23:47:23.751Z,5.42
2022-11-25T23:49:52.144Z,5.40
2022-11-25T23:52:24.316Z,5.30
2022-11-25T23:54:54.686Z,5.17
2022-11-25T23:57:23.747Z,5.34
2022-11-25T23:59:51.709Z,5.27
